createdAt,value
2023-03-12T00:00:08.985Z,26.0550
2023-03-12T00:00:20.072Z,26.0500
2023-03-12T00:00:31.134Z,26.0600
2023-03-12T00:00:42.204Z,26.0520
2023-03-12T00:00:53.301Z,26.0750
2023-03-12T00:01:04.343Z,26.0780
2023-03-12T00:01:15.409Z,26.1000
2023-03-12T00:01:29.939Z,26.1100
2023-03-12T00:01:41.714Z,26.2270
2023-03-12T00:01:52.784Z,26.1710
2023-03-12T00:02:03.866Z,26.1560
2023-03-12T00:02:14.969Z,26.1300
2023-03-12T00:02:26.052Z,26.1140
2023-03-12T00:02:37.147Z,26.1030
2023-03-12T00:02:48.206Z,26.0890
2023-03-12T00:02:59.313Z,26.0830
2023-03-12T00:03:10.402Z,26.0780
2023-03-12T00:03:21.517Z,26.0800
2023-03-12T00:03:32.579Z,26.0800
2023-03-12T00:03:43.788Z,26.0580
2023-03-12T00:03:54.863Z,26.0420
2023-03-12T00:04:06.072Z,26.0440
2023-03-12T00:04:17.203Z,26.0420
2023-03-12T00:04:28.255Z,26.0580
2023-03-12T00:04:39.301Z,26.0640
2023-03-12T00:04:50.348Z,26.0780
2023-03-12T00:05:01.428Z,26.0780
2023-03-12T00:05:12.478Z,26.0970
2023-03-12T00:05:23.554Z,26.1020
2023-03-12T00:05:34.608Z,26.1130
2023-03-12T00:05:45.667Z,26.1250
2023-03-12T00:05:56.732Z,26.1200
2023-03-12T00:06:10.780Z,26.1310
2023-03-12T00:06:22.316Z,26.2220
2023-03-12T00:06:33.378Z,26.1820
2023-03-12T00:06:44.435Z,26.1610
2023-03-12T00:06:55.514Z,26.1520
2023-03-12T00:07:06.738Z,26.1360
2023-03-12T00:07:17.749Z,26.1460
2023-03-12T00:07:28.830Z,26.1310
2023-03-12T00:07:39.899Z,26.1250
2023-03-12T00:07:50.968Z,26.1310
2023-03-12T00:08:02.034Z,26.1310
2023-03-12T00:08:13.106Z,26.1310
2023-03-12T00:08:24.178Z,26.1410
2023-03-12T00:08:35.275Z,26.1410
2023-03-12T00:08:46.394Z,26.1630
2023-03-12T00:08:57.421Z,26.1690
2023-03-12T00:09:08.461Z,26.1950
2023-03-12T00:09:19.518Z,26.1880
2023-03-12T00:09:30.591Z,26.2200
2023-03-12T00:09:41.665Z,26.2100
2023-03-12T00:09:52.698Z,26.2100
2023-03-12T00:10:03.746Z,26.2260
2023-03-12T00:10:14.814Z,26.2200
2023-03-12T00:10:25.901Z,26.1990
2023-03-12T00:10:36.987Z,26.1940
2023-03-12T00:10:48.030Z,26.1990
2023-03-12T00:10:59.085Z,26.1880
2023-03-12T00:11:10.152Z,26.1880
2023-03-12T00:11:21.216Z,26.1940
2023-03-12T00:11:32.284Z,26.1940
2023-03-12T00:11:43.318Z,26.2100
2023-03-12T00:11:54.366Z,26.2100
2023-03-12T00:12:05.440Z,26.1880
2023-03-12T00:12:16.537Z,26.2040
2023-03-12T00:12:27.579Z,26.2150
2023-03-12T00:12:38.636Z,26.2040
2023-03-12T00:12:49.694Z,26.1940
2023-03-12T00:13:00.803Z,26.1990
2023-03-12T00:13:11.818Z,26.1900
2023-03-12T00:13:22.885Z,26.1950
2023-03-12T00:13:33.945Z,26.1710
2023-03-12T00:13:45.030Z,26.1350
2023-03-12T00:13:56.094Z,26.1250
2023-03-12T00:14:07.128Z,26.1050
2023-03-12T00:14:18.193Z,26.1000
2023-03-12T00:14:29.261Z,26.1100
2023-03-12T00:14:40.337Z,26.1100
2023-03-12T00:14:51.375Z,26.1200
2023-03-12T00:15:02.447Z,26.1300
2023-03-12T00:15:13.500Z,26.1300
2023-03-12T00:15:24.566Z,26.1350
2023-03-12T00:15:35.657Z,26.1350
2023-03-12T00:15:46.737Z,26.1140
2023-03-12T00:15:57.832Z,26.1250
2023-03-12T00:16:08.916Z,26.1210
2023-03-12T00:16:20.047Z,26.1210
2023-03-12T00:16:31.072Z,26.1250
2023-03-12T00:16:42.124Z,26.1510
2023-03-12T00:16:53.189Z,26.1510
2023-03-12T00:17:04.249Z,26.1610
2023-03-12T00:17:15.302Z,26.1710
2023-03-12T00:17:26.415Z,26.1660
2023-03-12T00:17:37.476Z,26.1460
2023-03-12T00:17:48.517Z,26.1570
2023-03-12T00:17:59.585Z,26.1580
2023-03-12T00:18:10.646Z,26.1470
2023-03-12T00:18:21.694Z,26.1420
2023-03-12T00:18:32.789Z,26.1370
2023-03-12T00:18:43.804Z,26.1370
2023-03-12T00:18:54.879Z,26.1260
2023-03-12T00:19:05.950Z,26.1220
2023-03-12T00:19:17.036Z,26.1120
2023-03-12T00:19:28.138Z,26.1270
2023-03-12T00:19:39.159Z,26.1060
2023-03-12T00:19:50.224Z,26.1210
2023-03-12T00:20:01.286Z,26.1420
2023-03-12T00:20:12.363Z,26.1570
2023-03-12T00:20:23.420Z,26.1730
2023-03-12T00:20:34.476Z,26.1620
2023-03-12T00:20:45.548Z,26.1570
2023-03-12T00:20:56.636Z,26.1580
2023-03-12T00:21:07.697Z,26.1530
2023-03-12T00:21:18.758Z,26.1510
2023-03-12T00:21:29.838Z,26.1570
2023-03-12T00:21:40.885Z,26.1670
2023-03-12T00:21:51.935Z,26.1710
2023-03-12T00:22:02.993Z,26.1950
2023-03-12T00:22:14.045Z,26.2000
2023-03-12T00:22:25.180Z,26.2000
2023-03-12T00:22:36.267Z,26.2270
2023-03-12T00:22:47.334Z,26.2270
2023-03-12T00:22:58.404Z,26.2150
2023-03-12T00:23:09.452Z,26.1840
2023-03-12T00:23:20.500Z,26.1530
2023-03-12T00:23:31.570Z,26.1320
2023-03-12T00:23:42.637Z,26.1060
2023-03-12T00:23:53.704Z,26.1060
2023-03-12T00:24:04.770Z,26.1330
2023-03-12T00:24:15.827Z,26.1390
2023-03-12T00:24:26.896Z,26.1390
2023-03-12T00:24:37.966Z,26.1450
2023-03-12T00:24:49.032Z,26.1420
2023-03-12T00:25:00.127Z,26.1530
2023-03-12T00:25:11.150Z,26.1640
2023-03-12T00:25:22.220Z,26.1580
2023-03-12T00:25:33.302Z,26.1730
2023-03-12T00:25:46.773Z,26.1730
2023-03-12T00:25:57.989Z,26.2620
2023-03-12T00:26:09.037Z,26.2320
2023-03-12T00:26:20.089Z,26.2200
2023-03-12T00:26:31.157Z,26.1990
2023-03-12T00:26:42.193Z,26.1890
2023-03-12T00:26:53.245Z,26.1730
2023-03-12T00:27:04.310Z,26.1580
2023-03-12T00:27:15.387Z,26.1370
2023-03-12T00:27:26.421Z,26.1260
2023-03-12T00:27:37.535Z,26.1220
2023-03-12T00:27:48.586Z,26.1170
2023-03-12T00:27:59.662Z,26.1080
2023-03-12T00:28:10.739Z,26.0970
2023-03-12T00:28:21.786Z,26.0870
2023-03-12T00:28:32.827Z,26.0740
2023-03-12T00:28:43.883Z,26.0960
2023-03-12T00:28:54.970Z,26.0900
2023-03-12T00:29:06.014Z,26.1080
2023-03-12T00:29:17.067Z,26.1030
2023-03-12T00:29:28.114Z,26.0970
2023-03-12T00:29:39.152Z,26.0920
2023-03-12T00:29:50.238Z,26.1030
2023-03-12T00:30:01.282Z,26.1190
2023-03-12T00:30:12.364Z,26.1250
2023-03-12T00:30:23.429Z,26.1270
2023-03-12T00:30:34.502Z,26.1330
2023-03-12T00:30:45.556Z,26.1420
2023-03-12T00:30:57.290Z,26.1270
2023-03-12T00:31:08.446Z,26.1390
2023-03-12T00:31:19.500Z,26.1450
2023-03-12T00:31:30.623Z,26.1640
2023-03-12T00:31:41.805Z,26.1640
2023-03-12T00:31:53.018Z,26.1860
2023-03-12T00:32:04.084Z,26.1860
2023-03-12T00:32:15.207Z,26.1960
2023-03-12T00:32:26.288Z,26.1960
2023-03-12T00:32:37.406Z,26.2010
2023-03-12T00:32:48.585Z,26.2010
2023-03-12T00:32:59.732Z,26.2030
2023-03-12T00:33:10.815Z,26.2030
2023-03-12T00:33:21.886Z,26.2140
2023-03-12T00:33:32.938Z,26.2140
2023-03-12T00:33:44.007Z,26.2230
2023-03-12T00:33:55.080Z,26.2280
2023-03-12T00:34:06.165Z,26.2330
2023-03-12T00:34:17.207Z,26.2390
2023-03-12T00:34:28.286Z,26.2280
2023-03-12T00:34:39.381Z,26.2320
2023-03-12T00:34:50.440Z,26.2530
2023-03-12T00:35:01.495Z,26.2530
2023-03-12T00:35:12.570Z,26.2580
2023-03-12T00:35:23.629Z,26.2320
2023-03-12T00:35:34.749Z,26.2370
2023-03-12T00:35:45.809Z,26.2370
2023-03-12T00:35:56.913Z,26.2580
2023-03-12T00:36:07.934Z,26.2480
2023-03-12T00:36:19.030Z,26.2530
2023-03-12T00:36:30.086Z,26.2270
2023-03-12T00:36:41.124Z,26.2170
2023-03-12T00:36:52.190Z,26.2010
2023-03-12T00:37:03.233Z,26.2010
2023-03-12T00:37:14.319Z,26.2140
2023-03-12T00:37:25.382Z,26.2030
2023-03-12T00:37:36.438Z,26.2140
2023-03-12T00:37:47.505Z,26.2250
2023-03-12T00:37:58.609Z,26.2170
2023-03-12T00:38:09.673Z,26.2070
2023-03-12T00:38:20.733Z,26.2120
2023-03-12T00:38:31.799Z,26.2140
2023-03-12T00:38:42.881Z,26.2080
2023-03-12T00:38:53.957Z,26.2200
2023-03-12T00:39:05.003Z,26.2250
2023-03-12T00:39:16.075Z,26.2280
2023-03-12T00:39:27.153Z,26.2280
2023-03-12T00:39:38.211Z,26.2230
2023-03-12T00:39:49.293Z,26.2230
2023-03-12T00:40:00.340Z,26.2070
2023-03-12T00:40:11.431Z,26.2010
2023-03-12T00:40:22.472Z,26.2080
2023-03-12T00:40:33.530Z,26.1970
2023-03-12T00:40:44.591Z,26.2080
2023-03-12T00:40:55.644Z,26.1920
2023-03-12T00:41:06.711Z,26.2000
2023-03-12T00:41:17.753Z,26.1770
2023-03-12T00:41:28.856Z,26.1770
2023-03-12T00:41:39.892Z,26.1830
2023-03-12T00:41:50.964Z,26.1720
2023-03-12T00:42:02.024Z,26.1760
2023-03-12T00:42:13.106Z,26.1600
2023-03-12T00:42:24.167Z,26.1550
2023-03-12T00:42:35.221Z,26.1660
2023-03-12T00:42:46.301Z,26.1660
2023-03-12T00:42:57.358Z,26.1810
2023-03-12T00:43:08.457Z,26.1830
2023-03-12T00:43:19.520Z,26.1950
2023-03-12T00:43:30.596Z,26.2050
2023-03-12T00:43:41.634Z,26.2000
2023-03-12T00:43:52.698Z,26.2140
2023-03-12T00:44:03.729Z,26.2250
2023-03-12T00:44:14.773Z,26.2170
2023-03-12T00:44:25.872Z,26.2330
2023-03-12T00:44:36.931Z,26.2450
2023-03-12T00:44:48.007Z,26.2390
2023-03-12T00:44:59.037Z,26.2120
2023-03-12T00:45:10.080Z,26.1970
2023-03-12T00:45:21.166Z,26.1970
2023-03-12T00:45:32.214Z,26.1920
2023-03-12T00:45:43.273Z,26.2000
2023-03-12T00:45:54.322Z,26.2080
2023-03-12T00:46:05.352Z,26.2140
2023-03-12T00:46:16.484Z,26.2300
2023-03-12T00:46:27.583Z,26.2390
2023-03-12T00:46:38.641Z,26.2610
2023-03-12T00:46:49.718Z,26.2550
2023-03-12T00:47:00.863Z,26.2500
2023-03-12T00:47:11.969Z,26.2550
2023-03-12T00:47:23.032Z,26.2500
2023-03-12T00:47:34.093Z,26.2660
2023-03-12T00:47:45.184Z,26.2390
2023-03-12T00:47:56.257Z,26.2330
2023-03-12T00:48:07.316Z,26.2300
2023-03-12T00:48:18.425Z,26.2200
2023-03-12T00:48:29.489Z,26.2080
2023-03-12T00:48:40.543Z,26.2100
2023-03-12T00:48:51.610Z,26.2000
2023-03-12T00:49:02.757Z,26.2050
2023-03-12T00:49:13.798Z,26.2100
2023-03-12T00:49:24.876Z,26.2000
2023-03-12T00:49:35.999Z,26.2210
2023-03-12T00:49:47.080Z,26.2260
2023-03-12T00:49:58.131Z,26.2360
2023-03-12T00:50:09.188Z,26.2410
2023-03-12T00:50:20.251Z,26.2360
2023-03-12T00:50:31.322Z,26.2660
2023-03-12T00:50:42.403Z,26.2610
2023-03-12T00:50:53.458Z,26.2360
2023-03-12T00:51:04.552Z,26.2410
2023-03-12T00:51:15.610Z,26.2250
2023-03-12T00:51:26.662Z,26.2100
2023-03-12T00:51:37.714Z,26.2050
2023-03-12T00:51:48.800Z,26.1970
2023-03-12T00:51:59.878Z,26.1970
2023-03-12T00:52:10.950Z,26.1760
2023-03-12T00:52:22.010Z,26.1810
2023-03-12T00:52:33.081Z,26.1810
2023-03-12T00:52:44.125Z,26.1920
2023-03-12T00:52:55.163Z,26.2080
2023-03-12T00:53:06.202Z,26.2080
2023-03-12T00:53:17.293Z,26.2080
2023-03-12T00:53:28.408Z,26.2190
2023-03-12T00:53:39.453Z,26.2400
2023-03-12T00:53:50.505Z,26.2260
2023-03-12T00:54:01.521Z,26.2480
2023-03-12T00:54:12.584Z,26.2570
2023-03-12T00:54:23.641Z,26.2670
2023-03-12T00:54:34.696Z,26.2720
2023-03-12T00:54:45.760Z,26.2720
2023-03-12T00:54:56.837Z,26.2710
2023-03-12T00:55:07.890Z,26.2820
2023-03-12T00:55:18.949Z,26.2820
2023-03-12T00:55:30.025Z,26.2910
2023-03-12T00:55:41.093Z,26.3120
2023-03-12T00:55:52.166Z,26.3320
2023-03-12T00:56:03.219Z,26.3220
2023-03-12T00:56:14.286Z,26.3320
2023-03-12T00:56:25.340Z,26.3320
2023-03-12T00:56:36.417Z,26.3120
2023-03-12T00:56:47.481Z,26.3020
2023-03-12T00:56:58.545Z,26.2910
2023-03-12T00:57:09.656Z,26.2770
2023-03-12T00:57:20.660Z,26.2550
2023-03-12T00:57:31.722Z,26.2570
2023-03-12T00:57:42.785Z,26.2360
2023-03-12T00:57:53.867Z,26.2250
2023-03-12T00:58:04.952Z,26.2360
2023-03-12T00:58:16.025Z,26.2360
2023-03-12T00:58:27.067Z,26.2260
2023-03-12T00:58:38.191Z,26.2310
2023-03-12T00:58:49.216Z,26.2360
2023-03-12T00:59:00.305Z,26.2570
2023-03-12T00:59:11.382Z,26.2620
2023-03-12T00:59:22.430Z,26.2770
2023-03-12T00:59:33.510Z,26.2980
2023-03-12T00:59:44.583Z,26.3070
2023-03-12T00:59:55.619Z,26.3330
2023-03-12T01:00:06.684Z,26.3320
2023-03-12T01:00:17.740Z,26.3270
2023-03-12T01:00:28.851Z,26.3370
2023-03-12T01:00:39.923Z,26.3440
2023-03-12T01:00:51.039Z,26.3490
2023-03-12T01:01:02.244Z,26.3510
2023-03-12T01:01:13.312Z,26.3610
2023-03-12T01:01:24.425Z,26.3720
2023-03-12T01:01:35.493Z,26.3510
2023-03-12T01:01:46.558Z,26.3450
2023-03-12T01:01:57.651Z,26.3320
2023-03-12T01:02:08.678Z,26.3270
2023-03-12T01:02:19.720Z,26.3370
2023-03-12T01:02:30.805Z,26.3510
2023-03-12T01:02:41.860Z,26.3670
2023-03-12T01:02:52.956Z,26.3720
2023-03-12T01:03:04.017Z,26.3810
2023-03-12T01:03:15.080Z,26.3710
2023-03-12T01:03:26.146Z,26.3760
2023-03-12T01:03:37.292Z,26.3860
2023-03-12T01:03:48.430Z,26.3760
2023-03-12T01:03:59.508Z,26.3760
2023-03-12T01:04:10.628Z,26.3810
2023-03-12T01:04:21.761Z,26.3650
2023-03-12T01:04:32.837Z,26.3560
2023-03-12T01:04:43.886Z,26.3350
2023-03-12T01:04:55.001Z,26.3220
2023-03-12T01:05:06.041Z,26.2910
2023-03-12T01:05:17.102Z,26.2910
2023-03-12T01:05:28.173Z,26.2920
2023-03-12T01:05:39.250Z,26.3030
2023-03-12T01:05:50.312Z,26.3150
2023-03-12T01:06:01.392Z,26.3070
2023-03-12T01:06:12.422Z,26.3020
2023-03-12T01:06:23.502Z,26.3180
2023-03-12T01:06:34.567Z,26.3160
2023-03-12T01:06:45.644Z,26.3320
2023-03-12T01:06:56.700Z,26.3300
2023-03-12T01:07:07.774Z,26.3270
2023-03-12T01:07:18.841Z,26.3110
2023-03-12T01:07:29.901Z,26.2960
2023-03-12T01:07:40.969Z,26.2810
2023-03-12T01:07:52.038Z,26.2820
2023-03-12T01:08:03.081Z,26.3020
2023-03-12T01:08:14.138Z,26.3230
2023-03-12T01:08:25.214Z,26.3230
2023-03-12T01:08:36.265Z,26.3370
2023-03-12T01:08:47.325Z,26.3350
2023-03-12T01:08:58.420Z,26.3450
2023-03-12T01:09:09.494Z,26.3600
2023-03-12T01:09:20.532Z,26.3710
2023-03-12T01:09:31.593Z,26.3650
2023-03-12T01:09:42.672Z,26.3670
2023-03-12T01:09:53.720Z,26.3240
2023-03-12T01:10:04.831Z,26.3020
2023-03-12T01:10:15.875Z,26.2910
2023-03-12T01:10:26.915Z,26.2810
2023-03-12T01:10:37.992Z,26.2920
2023-03-12T01:10:49.051Z,26.2710
2023-03-12T01:11:00.209Z,26.2620
2023-03-12T01:11:11.271Z,26.2460
2023-03-12T01:11:22.361Z,26.2460
2023-03-12T01:11:33.404Z,26.2370
2023-03-12T01:11:44.446Z,26.2480
2023-03-12T01:11:55.520Z,26.2370
2023-03-12T01:12:06.605Z,26.2410
2023-03-12T01:12:17.670Z,26.2460
2023-03-12T01:12:28.704Z,26.2670
2023-03-12T01:12:39.766Z,26.2620
2023-03-12T01:12:50.838Z,26.2720
2023-03-12T01:13:01.886Z,26.2720
2023-03-12T01:13:12.945Z,26.2620
2023-03-12T01:13:24.016Z,26.2620
2023-03-12T01:13:35.081Z,26.2510
2023-03-12T01:13:46.121Z,26.2370
2023-03-12T01:13:57.194Z,26.2480
2023-03-12T01:14:08.261Z,26.2420
2023-03-12T01:14:19.339Z,26.2580
2023-03-12T01:14:30.380Z,26.2750
2023-03-12T01:14:41.398Z,26.2630
2023-03-12T01:14:52.479Z,26.2620
2023-03-12T01:15:03.553Z,26.2620
2023-03-12T01:15:14.596Z,26.2510
2023-03-12T01:15:25.651Z,26.2780
2023-03-12T01:15:36.697Z,26.2620
2023-03-12T01:15:47.778Z,26.2770
2023-03-12T01:15:58.918Z,26.2710
2023-03-12T01:16:10.060Z,26.2820
2023-03-12T01:16:21.130Z,26.2980
2023-03-12T01:16:32.311Z,26.3180
2023-03-12T01:16:43.405Z,26.3400
2023-03-12T01:16:54.464Z,26.3600
2023-03-12T01:17:05.516Z,26.3650
2023-03-12T01:17:16.579Z,26.3770
2023-03-12T01:17:27.616Z,26.3890
2023-03-12T01:17:38.673Z,26.4210
2023-03-12T01:17:49.744Z,26.4250
2023-03-12T01:18:00.817Z,26.4410
2023-03-12T01:18:11.887Z,26.4450
2023-03-12T01:18:22.945Z,26.4530
2023-03-12T01:18:34.013Z,26.4530
2023-03-12T01:18:45.062Z,26.4410
2023-03-12T01:18:56.129Z,26.4360
2023-03-12T01:19:07.236Z,26.4360
2023-03-12T01:19:18.337Z,26.4300
2023-03-12T01:19:29.376Z,26.4100
2023-03-12T01:19:40.428Z,26.3970
2023-03-12T01:19:51.465Z,26.3710
2023-03-12T01:20:02.529Z,26.3610
2023-03-12T01:20:13.560Z,26.3650
2023-03-12T01:20:24.635Z,26.3500
2023-03-12T01:20:35.782Z,26.3650
2023-03-12T01:20:46.853Z,26.3760
2023-03-12T01:20:57.915Z,26.3720
2023-03-12T01:21:08.985Z,26.3890
2023-03-12T01:21:20.032Z,26.3940
2023-03-12T01:21:31.100Z,26.3990
2023-03-12T01:21:42.144Z,26.3990
2023-03-12T01:21:53.223Z,26.4050
2023-03-12T01:22:04.337Z,26.3990
2023-03-12T01:22:15.374Z,26.4100
2023-03-12T01:22:26.441Z,26.4160
2023-03-12T01:22:37.513Z,26.4160
2023-03-12T01:22:48.581Z,26.3940
2023-03-12T01:22:59.633Z,26.3760
2023-03-12T01:23:10.686Z,26.3450
2023-03-12T01:23:21.771Z,26.3450
2023-03-12T01:23:32.834Z,26.3500
2023-03-12T01:23:43.877Z,26.3720
2023-03-12T01:23:54.929Z,26.3820
2023-03-12T01:24:05.989Z,26.3820
2023-03-12T01:24:17.056Z,26.3720
2023-03-12T01:24:28.151Z,26.3720
2023-03-12T01:24:39.205Z,26.3500
2023-03-12T01:24:50.244Z,26.3360
2023-03-12T01:25:01.321Z,26.3250
2023-03-12T01:25:12.393Z,26.3310
2023-03-12T01:25:23.464Z,26.3360
2023-03-12T01:25:34.547Z,26.3360
2023-03-12T01:25:45.601Z,26.3410
2023-03-12T01:25:56.633Z,26.3460
2023-03-12T01:26:07.688Z,26.3310
2023-03-12T01:26:18.771Z,26.3520
2023-03-12T01:26:29.811Z,26.3570
2023-03-12T01:26:40.854Z,26.3520
2023-03-12T01:26:51.916Z,26.3660
2023-03-12T01:27:02.958Z,26.3720
2023-03-12T01:27:14.033Z,26.3820
2023-03-12T01:27:25.105Z,26.3920
2023-03-12T01:27:36.168Z,26.3810
2023-03-12T01:27:47.233Z,26.3970
2023-03-12T01:27:58.277Z,26.3810
2023-03-12T01:28:09.346Z,26.3830
2023-03-12T01:28:20.385Z,26.3990
2023-03-12T01:28:31.454Z,26.3890
2023-03-12T01:28:42.523Z,26.3770
2023-03-12T01:28:53.596Z,26.4210
2023-03-12T01:29:04.650Z,26.4260
2023-03-12T01:29:15.723Z,26.4260
2023-03-12T01:29:26.794Z,26.4370
2023-03-12T01:29:37.903Z,26.4260
2023-03-12T01:29:48.980Z,26.4310
2023-03-12T01:30:00.037Z,26.4260
2023-03-12T01:30:11.078Z,26.4350
2023-03-12T01:30:22.149Z,26.4400
2023-03-12T01:30:33.198Z,26.4400
2023-03-12T01:30:44.258Z,26.4460
2023-03-12T01:30:55.324Z,26.4370
2023-03-12T01:31:06.496Z,26.4510
2023-03-12T01:31:17.603Z,26.4470
2023-03-12T01:31:28.655Z,26.4530
2023-03-12T01:31:39.777Z,26.4510
2023-03-12T01:31:50.874Z,26.4510
2023-03-12T01:32:01.929Z,26.4260
2023-03-12T01:32:12.999Z,26.4090
2023-03-12T01:32:24.134Z,26.3770
2023-03-12T01:32:35.262Z,26.3780
2023-03-12T01:32:46.381Z,26.3780
2023-03-12T01:32:57.402Z,26.4030
2023-03-12T01:33:08.466Z,26.3980
2023-03-12T01:33:19.517Z,26.4200
2023-03-12T01:33:30.574Z,26.4150
2023-03-12T01:33:41.638Z,26.4350
2023-03-12T01:33:52.709Z,26.4370
2023-03-12T01:34:03.769Z,26.4420
2023-03-12T01:34:14.820Z,26.4310
2023-03-12T01:34:25.880Z,26.4510
2023-03-12T01:34:36.918Z,26.4620
2023-03-12T01:34:48.043Z,26.4620
2023-03-12T01:34:59.083Z,26.4830
2023-03-12T01:35:10.248Z,26.4670
2023-03-12T01:35:21.359Z,26.4580
2023-03-12T01:35:32.550Z,26.4580
2023-03-12T01:35:43.859Z,26.4420
2023-03-12T01:35:55.195Z,26.4400
2023-03-12T01:36:06.369Z,26.4350
2023-03-12T01:36:17.451Z,26.4420
2023-03-12T01:36:28.632Z,26.4470
2023-03-12T01:36:39.708Z,26.4560
2023-03-12T01:36:50.764Z,26.4620
2023-03-12T01:37:01.839Z,26.4630
2023-03-12T01:37:12.906Z,26.4690
2023-03-12T01:37:23.967Z,26.4750
2023-03-12T01:37:35.024Z,26.4910
2023-03-12T01:37:46.067Z,26.4750
2023-03-12T01:37:57.134Z,26.4780
2023-03-12T01:38:08.200Z,26.4950
2023-03-12T01:38:19.265Z,26.4890
2023-03-12T01:38:30.347Z,26.4780
2023-03-12T01:38:41.421Z,26.4890
2023-03-12T01:38:52.492Z,26.4920
2023-03-12T01:39:03.562Z,26.5120
2023-03-12T01:39:14.629Z,26.5110
2023-03-12T01:39:25.699Z,26.5370
2023-03-12T01:39:36.761Z,26.5320
2023-03-12T01:39:47.810Z,26.5320
2023-03-12T01:39:58.914Z,26.5320
2023-03-12T01:40:09.970Z,26.5370
2023-03-12T01:40:21.033Z,26.5370
2023-03-12T01:40:32.104Z,26.5420
2023-03-12T01:40:43.193Z,26.5370
2023-03-12T01:40:54.251Z,26.5270
2023-03-12T01:41:05.304Z,26.4960
2023-03-12T01:41:16.360Z,26.4820
2023-03-12T01:41:27.448Z,26.4510
2023-03-12T01:41:38.479Z,26.4420
2023-03-12T01:41:49.560Z,26.4210
2023-03-12T01:42:00.633Z,26.4160
2023-03-12T01:42:11.715Z,26.4350
2023-03-12T01:42:22.784Z,26.4300
2023-03-12T01:42:33.855Z,26.4400
2023-03-12T01:42:44.904Z,26.4370
2023-03-12T01:42:55.971Z,26.4470
2023-03-12T01:43:07.044Z,26.4580
2023-03-12T01:43:18.103Z,26.4800
2023-03-12T01:43:29.142Z,26.4780
2023-03-12T01:43:40.215Z,26.4580
2023-03-12T01:43:51.223Z,26.4370
2023-03-12T01:44:02.330Z,26.4300
2023-03-12T01:44:13.376Z,26.4260
2023-03-12T01:44:24.421Z,26.3930
2023-03-12T01:44:35.473Z,26.3720
2023-03-12T01:44:46.512Z,26.4010
2023-03-12T01:44:57.597Z,26.3950
2023-03-12T01:45:08.691Z,26.3900
2023-03-12T01:45:19.754Z,26.3930
2023-03-12T01:45:30.836Z,26.3980
2023-03-12T01:45:41.901Z,26.4090
2023-03-12T01:45:53.004Z,26.4150
2023-03-12T01:46:04.083Z,26.4360
2023-03-12T01:46:15.156Z,26.4460
2023-03-12T01:46:26.210Z,26.4510
2023-03-12T01:46:37.271Z,26.4400
2023-03-12T01:46:48.289Z,26.4260
2023-03-12T01:46:59.350Z,26.4030
2023-03-12T01:47:10.400Z,26.3900
2023-03-12T01:47:21.427Z,26.3900
2023-03-12T01:47:32.501Z,26.3810
2023-03-12T01:47:43.554Z,26.3580
2023-03-12T01:47:54.626Z,26.3530
2023-03-12T01:48:05.630Z,26.3480
2023-03-12T01:48:16.694Z,26.3430
2023-03-12T01:48:27.751Z,26.3530
2023-03-12T01:48:38.837Z,26.3650
2023-03-12T01:48:49.912Z,26.3860
2023-03-12T01:49:00.956Z,26.4110
2023-03-12T01:49:12.015Z,26.4270
2023-03-12T01:49:23.084Z,26.4200
2023-03-12T01:49:34.137Z,26.4150
2023-03-12T01:49:45.211Z,26.4010
2023-03-12T01:49:56.288Z,26.3950
2023-03-12T01:50:07.368Z,26.3860
2023-03-12T01:50:18.497Z,26.3910
2023-03-12T01:50:29.529Z,26.3960
2023-03-12T01:50:40.570Z,26.3950
2023-03-12T01:50:51.670Z,26.3860
2023-03-12T01:51:02.755Z,26.3810
2023-03-12T01:51:13.794Z,26.3960
2023-03-12T01:51:24.870Z,26.4070
2023-03-12T01:51:35.913Z,26.4020
2023-03-12T01:51:46.994Z,26.3910
2023-03-12T01:51:58.079Z,26.4120
2023-03-12T01:52:09.121Z,26.4160
2023-03-12T01:52:20.183Z,26.4160
2023-03-12T01:52:31.232Z,26.4320
2023-03-12T01:52:42.308Z,26.4360
2023-03-12T01:52:53.377Z,26.4630
2023-03-12T01:53:04.460Z,26.4630
2023-03-12T01:53:15.520Z,26.4690
2023-03-12T01:53:26.583Z,26.4890
2023-03-12T01:53:37.650Z,26.5320
2023-03-12T01:53:48.736Z,26.5410
2023-03-12T01:53:59.792Z,26.5410
2023-03-12T01:54:10.824Z,26.5200
2023-03-12T01:54:21.856Z,26.5200
2023-03-12T01:54:32.923Z,26.5150
2023-03-12T01:54:43.982Z,26.4950
2023-03-12T01:54:55.038Z,26.5110
2023-03-12T01:55:06.125Z,26.5050
2023-03-12T01:55:17.198Z,26.4910
2023-03-12T01:55:28.274Z,26.4800
2023-03-12T01:55:39.307Z,26.4850
2023-03-12T01:55:50.389Z,26.4780
2023-03-12T01:56:01.460Z,26.4630
2023-03-12T01:56:12.497Z,26.4630
2023-03-12T01:56:23.565Z,26.4470
2023-03-12T01:56:34.627Z,26.4470
2023-03-12T01:56:45.678Z,26.4430
2023-03-12T01:56:56.752Z,26.4320
2023-03-12T01:57:07.835Z,26.4220
2023-03-12T01:57:18.925Z,26.4220
2023-03-12T01:57:29.996Z,26.4110
2023-03-12T01:57:41.051Z,26.4160
2023-03-12T01:57:52.122Z,26.4320
2023-03-12T01:58:03.168Z,26.4420
2023-03-12T01:58:14.244Z,26.4360
2023-03-12T01:58:25.288Z,26.4360
2023-03-12T01:58:36.356Z,26.4360
2023-03-12T01:58:47.438Z,26.4260
2023-03-12T01:58:58.497Z,26.4470
2023-03-12T01:59:09.539Z,26.4470
2023-03-12T01:59:20.580Z,26.4470
2023-03-12T01:59:31.645Z,26.4470
2023-03-12T01:59:42.693Z,26.4360
2023-03-12T01:59:53.774Z,26.4310
2023-03-12T02:00:04.822Z,26.4310
2023-03-12T02:00:15.876Z,26.4150
2023-03-12T02:00:26.940Z,26.4060
2023-03-12T02:00:38.048Z,26.4010
2023-03-12T02:00:49.148Z,26.4060
2023-03-12T02:01:00.280Z,26.4010
2023-03-12T02:01:11.344Z,26.4320
2023-03-12T02:01:22.460Z,26.4310
2023-03-12T02:01:33.656Z,26.4270
2023-03-12T02:01:44.722Z,26.4110
2023-03-12T02:01:55.794Z,26.4220
2023-03-12T02:02:06.884Z,26.4380
2023-03-12T02:02:17.958Z,26.4530
2023-03-12T02:02:29.006Z,26.4630
2023-03-12T02:02:40.068Z,26.4840
2023-03-12T02:02:51.144Z,26.4840
2023-03-12T02:03:02.231Z,26.4880
2023-03-12T02:03:13.288Z,26.4940
2023-03-12T02:03:24.370Z,26.5210
2023-03-12T02:03:35.495Z,26.5070
2023-03-12T02:03:46.613Z,26.5070
2023-03-12T02:03:57.752Z,26.5010
2023-03-12T02:04:08.895Z,26.4850
2023-03-12T02:04:20.030Z,26.4720
2023-03-12T02:04:31.171Z,26.4420
2023-03-12T02:04:42.369Z,26.4200
2023-03-12T02:04:53.426Z,26.4060
2023-03-12T02:05:04.509Z,26.4110
2023-03-12T02:05:15.574Z,26.4060
2023-03-12T02:05:26.668Z,26.3860
2023-03-12T02:05:37.692Z,26.3860
2023-03-12T02:05:48.777Z,26.3860
2023-03-12T02:05:59.840Z,26.3810
2023-03-12T02:06:10.904Z,26.4020
2023-03-12T02:06:21.961Z,26.4120
2023-03-12T02:06:33.021Z,26.4220
2023-03-12T02:06:44.094Z,26.4160
2023-03-12T02:06:55.155Z,26.3950
2023-03-12T02:07:06.243Z,26.3860
2023-03-12T02:07:17.284Z,26.3750
2023-03-12T02:07:28.328Z,26.3650
2023-03-12T02:07:39.370Z,26.3530
2023-03-12T02:07:50.450Z,26.3580
2023-03-12T02:08:01.481Z,26.3530
2023-03-12T02:08:12.574Z,26.3700
2023-03-12T02:08:23.638Z,26.4010
2023-03-12T02:08:34.678Z,26.4060
2023-03-12T02:08:45.810Z,26.4110
2023-03-12T02:08:56.840Z,26.3980
2023-03-12T02:09:08.067Z,26.4150
2023-03-12T02:09:19.485Z,26.4310
2023-03-12T02:09:30.760Z,26.4370
2023-03-12T02:09:41.956Z,26.4530
2023-03-12T02:09:52.993Z,26.4620
2023-03-12T02:10:04.037Z,26.4620
2023-03-12T02:10:15.089Z,26.4760
2023-03-12T02:10:26.179Z,26.4870
2023-03-12T02:10:37.243Z,26.4800
2023-03-12T02:10:48.296Z,26.4960
2023-03-12T02:10:59.434Z,26.4960
2023-03-12T02:11:10.502Z,26.4960
2023-03-12T02:11:21.576Z,26.4980
2023-03-12T02:11:32.653Z,26.4920
2023-03-12T02:11:43.682Z,26.4870
2023-03-12T02:11:54.757Z,26.4870
2023-03-12T02:12:05.816Z,26.4860
2023-03-12T02:12:16.876Z,26.4860
2023-03-12T02:12:27.945Z,26.4960
2023-03-12T02:12:38.997Z,26.4960
2023-03-12T02:12:50.135Z,26.5230
2023-03-12T02:13:01.170Z,26.5210
2023-03-12T02:13:12.222Z,26.5320
2023-03-12T02:13:23.286Z,26.5530
2023-03-12T02:13:34.322Z,26.5530
2023-03-12T02:13:45.404Z,26.5320
2023-03-12T02:13:56.463Z,26.5270
2023-03-12T02:14:07.534Z,26.5110